sensor_id;sensor_type;location;lat;lon;timestamp;P1;durP1;ratioP1;P2;durP2;ratioP2
489;SDS011;231;48.120;11.576;2023-05-23T00:00:40;16.30;;;15.23;;
489;SDS011;231;48.120;11.576;2023-05-23T00:03:07;17.10;;;16.20;;
489;SDS011;231;48.120;11.576;2023-05-23T00:05:35;17.30;;;16.40;;
489;SDS011;231;48.120;11.576;2023-05-23T00:08:02;16.43;;;15.63;;
489;SDS011;231;48.120;11.576;2023-05-23T00:10:29;16.47;;;15.67;;
489;SDS011;231;48.120;11.576;2023-05-23T00:12:57;15.93;;;15.13;;
489;SDS011;231;48.120;11.576;2023-05-23T00:15:24;16.77;;;15.93;;
489;SDS011;231;48.120;11.576;2023-05-23T00:17:51;15.13;;;14.33;;
489;SDS011;231;48.120;11.576;2023-05-23T00:20:18;15.53;;;14.73;;
489;SDS011;231;48.120;11.576;2023-05-23T00:22:45;15.80;;;14.30;;
489;SDS011;231;48.120;11.576;2023-05-23T00:25:12;16.27;;;15.47;;
489;SDS011;231;48.120;11.576;2023-05-23T00:27:39;17.30;;;16.40;;
489;SDS011;231;48.120;11.576;2023-05-23T00:30:07;14.10;;;13.40;;
489;SDS011;231;48.120;11.576;2023-05-23T00:32:34;17.67;;;15.20;;
489;SDS011;231;48.120;11.576;2023-05-23T00:35:01;15.67;;;14.87;;
489;SDS011;231;48.120;11.576;2023-05-23T00:37:29;16.10;;;15.30;;
489;SDS011;231;48.120;11.576;2023-05-23T00:39:56;14.73;;;13.97;;
489;SDS011;231;48.120;11.576;2023-05-23T00:42:23;15.57;;;14.17;;
489;SDS011;231;48.120;11.576;2023-05-23T00:44:50;14.47;;;13.77;;
489;SDS011;231;48.120;11.576;2023-05-23T00:47:18;16.10;;;15.30;;
489;SDS011;231;48.120;11.576;2023-05-23T00:49:45;15.20;;;14.40;;
489;SDS011;231;48.120;11.576;2023-05-23T00:52:13;14.63;;;13.90;;
489;SDS011;231;48.120;11.576;2023-05-23T00:54:40;14.00;;;13.30;;
489;SDS011;231;48.120;11.576;2023-05-23T00:57:08;13.50;;;12.80;;
489;SDS011;231;48.120;11.576;2023-05-23T00:59:35;14.10;;;13.40;;
489;SDS011;231;48.120;11.576;2023-05-23T01:02:03;13.37;;;12.67;;
489;SDS011;231;48.120;11.576;2023-05-23T01:04:31;14.30;;;13.60;;
489;SDS011;231;48.120;11.576;2023-05-23T01:07:00;15.27;;;14.47;;
489;SDS011;231;48.120;11.576;2023-05-23T01:09:27;13.40;;;12.70;;
489;SDS011;231;48.120;11.576;2023-05-23T01:11:57;12.90;;;12.20;;
489;SDS011;231;48.120;11.576;2023-05-23T01:14:41;12.50;;;11.90;;
489;SDS011;231;48.120;11.576;2023-05-23T01:17:14;13.67;;;12.97;;
489;SDS011;231;48.120;11.576;2023-05-23T01:19:53;13.37;;;12.67;;
489;SDS011;231;48.120;11.576;2023-05-23T01:22:30;14.20;;;13.50;;
489;SDS011;231;48.120;11.576;2023-05-23T01:25:06;14.10;;;13.40;;
489;SDS011;231;48.120;11.576;2023-05-23T01:27:50;12.90;;;12.20;;
489;SDS011;231;48.120;11.576;2023-05-23T01:30:20;13.60;;;12.90;;
489;SDS011;231;48.120;11.576;2023-05-23T01:32:50;13.93;;;13.23;;
489;SDS011;231;48.120;11.576;2023-05-23T01:35:21;14.50;;;13.80;;
489;SDS011;231;48.120;11.576;2023-05-23T01:37:49;15.60;;;14.80;;
489;SDS011;231;48.120;11.576;2023-05-23T01:40:17;13.07;;;12.37;;
489;SDS011;231;48.120;11.576;2023-05-23T01:42:44;13.17;;;12.47;;
489;SDS011;231;48.120;11.576;2023-05-23T01:45:13;12.90;;;12.20;;
489;SDS011;231;48.120;11.576;2023-05-23T01:47:41;15.30;;;14.50;;
489;SDS011;231;48.120;11.576;2023-05-23T01:50:08;12.87;;;12.17;;
489;SDS011;231;48.120;11.576;2023-05-23T01:52:36;15.43;;;13.20;;
489;SDS011;231;48.120;11.576;2023-05-23T01:55:04;13.83;;;13.13;;
489;SDS011;231;48.120;11.576;2023-05-23T01:57:34;13.47;;;12.77;;
489;SDS011;231;48.120;11.576;2023-05-23T02:00:02;14.57;;;13.83;;
489;SDS011;231;48.120;11.576;2023-05-23T02:02:32;12.93;;;12.23;;
489;SDS011;231;48.120;11.576;2023-05-23T02:04:59;13.70;;;13.00;;
489;SDS011;231;48.120;11.576;2023-05-23T02:07:26;12.93;;;12.23;;
489;SDS011;231;48.120;11.576;2023-05-23T02:09:53;14.07;;;13.37;;
489;SDS011;231;48.120;11.576;2023-05-23T02:12:20;13.43;;;12.73;;
489;SDS011;231;48.120;11.576;2023-05-23T02:14:48;15.27;;;14.47;;
489;SDS011;231;48.120;11.576;2023-05-23T02:17:16;13.97;;;13.27;;
489;SDS011;231;48.120;11.576;2023-05-23T02:19:44;15.53;;;14.73;;
489;SDS011;231;48.120;11.576;2023-05-23T02:22:11;13.33;;;12.63;;
489;SDS011;231;48.120;11.576;2023-05-23T02:24:38;15.03;;;14.23;;
489;SDS011;231;48.120;11.576;2023-05-23T02:27:05;14.20;;;13.50;;
489;SDS011;231;48.120;11.576;2023-05-23T02:29:32;15.50;;;14.70;;
489;SDS011;231;48.120;11.576;2023-05-23T02:31:59;15.03;;;14.23;;
489;SDS011;231;48.120;11.576;2023-05-23T02:34:26;15.70;;;14.90;;
489;SDS011;231;48.120;11.576;2023-05-23T02:36:54;14.07;;;13.37;;
489;SDS011;231;48.120;11.576;2023-05-23T02:39:21;16.07;;;15.27;;
489;SDS011;231;48.120;11.576;2023-05-23T02:41:47;14.50;;;13.80;;
489;SDS011;231;48.120;11.576;2023-05-23T02:44:14;16.37;;;15.57;;
489;SDS011;231;48.120;11.576;2023-05-23T02:46:43;16.03;;;15.23;;
489;SDS011;231;48.120;11.576;2023-05-23T02:49:10;16.93;;;15.33;;
489;SDS011;231;48.120;11.576;2023-05-23T02:51:37;17.00;;;16.10;;
489;SDS011;231;48.120;11.576;2023-05-23T02:54:05;18.23;;;17.33;;
489;SDS011;231;48.120;11.576;2023-05-23T02:56:32;18.10;;;17.20;;
489;SDS011;231;48.120;11.576;2023-05-23T02:58:59;17.90;;;17.00;;
489;SDS011;231;48.120;11.576;2023-05-23T03:01:26;17.23;;;16.33;;
489;SDS011;231;48.120;11.576;2023-05-23T03:03:52;16.70;;;15.90;;
489;SDS011;231;48.120;11.576;2023-05-23T03:06:19;19.33;;;18.33;;
489;SDS011;231;48.120;11.576;2023-05-23T03:08:46;17.70;;;16.80;;
